createdAt,value
2018-10-03T00:00:07.546Z,16.23
2018-10-03T00:02:35.791Z,13.80
2018-10-03T00:05:03.815Z,16.97
2018-10-03T00:07:31.827Z,15.03
2018-10-03T00:10:01.368Z,14.63
2018-10-03T00:12:29.387Z,18.63
2018-10-03T00:14:57.408Z,18.53
2018-10-03T00:17:25.452Z,13.03
2018-10-03T00:19:53.492Z,14.23
2018-10-03T00:22:21.517Z,15.20
2018-10-03T00:24:49.540Z,17.23
2018-10-03T00:27:17.559Z,17.50
2018-10-03T00:29:46.459Z,15.83
2018-10-03T00:32:14.505Z,15.90
2018-10-03T00:34:42.536Z,19.13
2018-10-03T00:37:10.650Z,15.72
2018-10-03T00:39:38.667Z,18.80
2018-10-03T00:42:06.688Z,12.97
2018-10-03T00:44:35.689Z,14.70
2018-10-03T00:47:03.858Z,13.83
2018-10-03T00:49:31.868Z,14.00
2018-10-03T00:51:59.875Z,11.83
2018-10-03T00:54:28.060Z,13.30
2018-10-03T00:56:56.959Z,18.43
2018-10-03T00:59:24.972Z,15.90
2018-10-03T01:01:52.988Z,14.47
2018-10-03T01:04:21.021Z,12.98
2018-10-03T01:06:49.039Z,17.23
2018-10-03T01:09:17.080Z,17.57
2018-10-03T01:11:45.099Z,17.97
2018-10-03T01:14:13.112Z,19.43
2018-10-03T01:16:41.135Z,14.90
2018-10-03T01:19:09.156Z,16.73
2018-10-03T01:21:37.175Z,12.13
2018-10-03T01:24:05.346Z,13.70
2018-10-03T01:26:33.372Z,12.20
2018-10-03T01:29:01.460Z,14.60
2018-10-03T01:31:29.491Z,18.13
2018-10-03T01:33:57.531Z,17.33
2018-10-03T01:36:25.551Z,11.60
2018-10-03T01:38:53.572Z,19.03
2018-10-03T01:41:21.582Z,17.32
2018-10-03T01:43:49.618Z,15.30
2018-10-03T01:46:17.935Z,14.03
2018-10-03T01:48:46.057Z,16.80
2018-10-03T01:51:14.076Z,20.55
2018-10-03T01:53:42.102Z,14.03
2018-10-03T01:56:10.668Z,18.52
2018-10-03T01:58:38.723Z,18.47
2018-10-03T02:01:06.768Z,18.93
2018-10-03T02:03:34.828Z,15.47
2018-10-03T02:06:02.847Z,14.90
2018-10-03T02:08:30.868Z,20.12
2018-10-03T02:10:58.912Z,14.40
2018-10-03T02:13:26.927Z,17.47
2018-10-03T02:15:54.945Z,16.57
2018-10-03T02:18:22.969Z,18.37
2018-10-03T02:20:51.037Z,16.53
2018-10-03T02:23:19.017Z,18.77
2018-10-03T02:25:47.661Z,13.00
2018-10-03T02:28:15.696Z,13.25
2018-10-03T02:30:43.879Z,15.70
2018-10-03T02:33:11.895Z,19.35
2018-10-03T02:35:39.936Z,15.20
2018-10-03T02:38:07.967Z,13.03
2018-10-03T02:40:35.998Z,13.57
2018-10-03T02:43:04.657Z,16.30
2018-10-03T02:45:32.677Z,20.30
2018-10-03T02:48:00.708Z,14.67
2018-10-03T02:50:28.719Z,19.63
2018-10-03T02:52:56.752Z,23.03
2018-10-03T02:55:24.801Z,15.50
2018-10-03T02:57:52.831Z,12.98
2018-10-03T03:00:21.188Z,21.90
2018-10-03T03:02:49.217Z,15.20
2018-10-03T03:05:17.247Z,23.38
2018-10-03T03:07:45.296Z,10.53
2018-10-03T03:10:13.322Z,15.83
2018-10-03T03:12:41.356Z,21.97
2018-10-03T03:15:09.412Z,16.37
2018-10-03T03:17:37.427Z,17.07
2018-10-03T03:20:06.021Z,15.43
2018-10-03T03:22:34.048Z,15.17
2018-10-03T03:25:02.348Z,16.43
2018-10-03T03:27:31.015Z,15.10
2018-10-03T03:29:59.039Z,16.00
2018-10-03T03:32:27.094Z,16.70
2018-10-03T03:34:55.127Z,14.73
2018-10-03T03:37:23.627Z,20.43
2018-10-03T03:39:51.955Z,13.07
2018-10-03T03:42:19.988Z,15.98
2018-10-03T03:44:48.017Z,15.13
2018-10-03T03:47:16.779Z,22.13
2018-10-03T03:49:44.807Z,17.47
2018-10-03T03:52:12.927Z,14.93
2018-10-03T03:54:40.960Z,12.90
2018-10-03T03:57:09.005Z,14.73
2018-10-03T03:59:37.018Z,13.73
2018-10-03T04:02:05.051Z,13.60
2018-10-03T04:04:33.112Z,14.40
2018-10-03T04:07:01.393Z,15.13
2018-10-03T04:09:29.615Z,16.47
2018-10-03T04:11:57.631Z,20.63
2018-10-03T04:14:25.663Z,12.37
2018-10-03T04:16:53.707Z,18.13
2018-10-03T04:19:22.195Z,13.47
2018-10-03T04:21:50.689Z,13.97
2018-10-03T04:24:18.699Z,18.48
2018-10-03T04:26:46.836Z,16.93
2018-10-03T04:29:14.863Z,11.37
2018-10-03T04:31:42.903Z,11.43
2018-10-03T04:34:11.046Z,17.13
2018-10-03T04:36:39.424Z,17.37
2018-10-03T04:39:07.991Z,12.00
2018-10-03T04:41:36.679Z,13.17
2018-10-03T04:44:05.256Z,16.40
2018-10-03T04:46:33.356Z,14.93
2018-10-03T04:49:01.412Z,13.73
2018-10-03T04:51:30.009Z,16.53
2018-10-03T04:53:58.076Z,15.77
2018-10-03T04:56:26.451Z,14.83
2018-10-03T04:58:54.519Z,12.10
2018-10-03T05:01:22.544Z,14.10
2018-10-03T05:03:50.573Z,11.97
2018-10-03T05:06:18.592Z,13.00
2018-10-03T05:08:46.813Z,10.60
2018-10-03T05:11:14.887Z,10.90
2018-10-03T05:13:42.867Z,12.03
2018-10-03T05:16:10.888Z,15.32
2018-10-03T05:18:38.911Z,13.73
2018-10-03T05:21:06.988Z,15.87
2018-10-03T05:23:35.222Z,15.87
2018-10-03T05:26:03.385Z,15.60
2018-10-03T05:28:31.551Z,18.20
2018-10-03T05:30:59.728Z,12.77
2018-10-03T05:33:27.900Z,11.30
2018-10-03T05:35:55.841Z,22.53
2018-10-03T05:38:23.971Z,17.03
2018-10-03T05:40:52.000Z,12.03
2018-10-03T05:43:20.023Z,17.43
2018-10-03T05:45:48.172Z,19.10
2018-10-03T05:48:16.233Z,15.50
2018-10-03T05:50:44.327Z,16.73
2018-10-03T05:53:12.362Z,13.27
2018-10-03T05:55:40.399Z,18.07
2018-10-03T05:58:08.429Z,11.40
2018-10-03T06:00:36.463Z,15.37
2018-10-03T06:03:04.824Z,14.73
2018-10-03T06:05:33.129Z,14.65
2018-10-03T06:08:01.140Z,14.93
2018-10-03T06:10:29.190Z,15.13
2018-10-03T06:12:57.261Z,14.83
2018-10-03T06:15:25.340Z,13.23
2018-10-03T06:17:53.378Z,16.53
2018-10-03T06:20:21.396Z,12.00
2018-10-03T06:22:49.536Z,16.17
2018-10-03T06:25:17.616Z,14.25
2018-10-03T06:27:45.808Z,14.87
2018-10-03T06:30:14.068Z,18.77
2018-10-03T06:32:42.127Z,17.10
2018-10-03T06:35:10.200Z,18.73
2018-10-03T06:37:38.220Z,17.97
2018-10-03T06:40:06.975Z,14.50
2018-10-03T06:42:35.009Z,9.97
2018-10-03T06:45:03.131Z,7.07
2018-10-03T06:47:31.149Z,17.43
2018-10-03T06:49:59.173Z,11.13
2018-10-03T06:52:27.324Z,12.00
2018-10-03T06:54:55.547Z,17.90
2018-10-03T06:57:23.568Z,14.80
2018-10-03T06:59:51.956Z,13.30
2018-10-03T07:02:20.400Z,17.07
2018-10-03T07:04:48.521Z,11.67
2018-10-03T07:07:16.548Z,13.28
2018-10-03T07:09:44.562Z,16.63
2018-10-03T07:12:13.592Z,13.48
2018-10-03T07:14:41.637Z,16.00
2018-10-03T07:17:09.869Z,13.63
2018-10-03T07:19:37.886Z,15.13
2018-10-03T07:22:05.919Z,14.07
2018-10-03T07:24:33.978Z,18.93
2018-10-03T07:27:02.138Z,17.00
2018-10-03T07:29:30.183Z,16.73
2018-10-03T07:31:58.195Z,14.93
2018-10-03T07:34:26.248Z,15.53
2018-10-03T07:36:54.269Z,14.57
2018-10-03T07:39:22.367Z,16.80
2018-10-03T07:41:50.464Z,20.10
2018-10-03T07:44:19.472Z,15.47
2018-10-03T07:46:47.491Z,11.07
2018-10-03T07:49:15.691Z,18.27
2018-10-03T07:51:43.721Z,12.77
2018-10-03T07:54:11.853Z,11.57
2018-10-03T07:56:39.907Z,18.20
2018-10-03T07:59:08.182Z,12.60
2018-10-03T08:01:35.996Z,16.77
2018-10-03T08:04:04.875Z,11.73
2018-10-03T08:06:33.122Z,11.93
2018-10-03T08:09:01.155Z,14.20
2018-10-03T08:11:29.165Z,11.70
2018-10-03T08:13:57.332Z,16.83
2018-10-03T08:16:25.416Z,16.63
2018-10-03T08:18:53.767Z,16.23
2018-10-03T08:21:21.863Z,12.90
2018-10-03T08:23:50.020Z,16.35
2018-10-03T08:26:18.295Z,14.00
2018-10-03T08:28:46.363Z,13.03
2018-10-03T08:31:14.401Z,15.53
2018-10-03T08:33:42.520Z,18.50
2018-10-03T08:36:10.548Z,13.50
2018-10-03T08:38:38.703Z,13.13
2018-10-03T08:41:07.032Z,22.77
2018-10-03T08:43:35.116Z,13.90
2018-10-03T08:46:03.134Z,14.63
2018-10-03T08:48:31.232Z,8.83
2018-10-03T08:50:59.443Z,11.67
2018-10-03T08:53:27.684Z,13.47
2018-10-03T08:55:55.753Z,12.80
2018-10-03T08:58:23.954Z,11.00
2018-10-03T09:00:51.792Z,14.10
2018-10-03T09:03:19.820Z,11.15
2018-10-03T09:05:48.072Z,10.87
2018-10-03T09:08:17.110Z,14.00
2018-10-03T09:10:46.513Z,9.83
2018-10-03T09:13:14.994Z,14.60
2018-10-03T09:15:43.168Z,15.17
2018-10-03T09:18:11.478Z,13.00
2018-10-03T09:20:39.491Z,11.27
2018-10-03T09:23:07.691Z,10.60
2018-10-03T09:25:35.720Z,13.67
2018-10-03T09:28:03.770Z,9.57
2018-10-03T09:30:31.840Z,11.90
2018-10-03T09:33:00.247Z,9.58
2018-10-03T09:35:28.566Z,9.63
2018-10-03T09:37:56.588Z,10.57
2018-10-03T09:40:24.628Z,6.60
2018-10-03T09:42:52.780Z,10.48
2018-10-03T09:45:20.797Z,9.73
2018-10-03T09:47:48.839Z,10.13
2018-10-03T09:50:16.873Z,7.70
2018-10-03T09:52:44.906Z,9.48
2018-10-03T09:55:13.128Z,6.20
2018-10-03T09:57:41.152Z,8.57
2018-10-03T10:00:09.168Z,9.37
2018-10-03T10:02:37.532Z,10.37
2018-10-03T10:05:05.561Z,7.33
2018-10-03T10:07:33.673Z,8.13
2018-10-03T10:10:01.696Z,7.57
2018-10-03T10:12:29.725Z,6.80
2018-10-03T10:14:57.755Z,7.63
2018-10-03T10:17:25.776Z,8.20
2018-10-03T10:19:53.800Z,5.33
2018-10-03T10:22:21.868Z,9.05
2018-10-03T10:24:50.040Z,9.03
2018-10-03T10:27:18.065Z,7.47
2018-10-03T10:29:46.096Z,8.87
2018-10-03T10:32:14.139Z,5.97
2018-10-03T10:34:42.299Z,8.63
2018-10-03T10:37:10.294Z,8.80
2018-10-03T10:39:38.345Z,6.50
2018-10-03T10:42:06.516Z,7.77
2018-10-03T10:44:34.867Z,8.87
2018-10-03T10:47:02.937Z,8.03
2018-10-03T10:49:31.023Z,9.73
2018-10-03T10:51:59.052Z,5.40
2018-10-03T10:54:27.079Z,6.73
2018-10-03T10:56:55.123Z,7.13
2018-10-03T10:59:23.155Z,6.63
2018-10-03T11:01:51.267Z,9.50
2018-10-03T11:04:19.283Z,6.57
2018-10-03T11:06:47.393Z,6.03
2018-10-03T11:09:15.555Z,5.20
2018-10-03T11:11:43.570Z,7.63
2018-10-03T11:14:12.021Z,6.95
2018-10-03T11:16:40.384Z,8.07
2018-10-03T11:19:08.416Z,7.03
2018-10-03T11:21:36.547Z,7.70
2018-10-03T11:24:05.251Z,5.53
2018-10-03T11:26:33.157Z,6.57
2018-10-03T11:29:01.168Z,6.57
2018-10-03T11:31:29.344Z,12.83
2018-10-03T11:33:57.502Z,7.87
2018-10-03T11:36:25.516Z,6.67
2018-10-03T11:38:53.960Z,7.67
2018-10-03T11:41:21.984Z,5.97
2018-10-03T11:43:50.061Z,7.03
2018-10-03T11:46:18.173Z,6.17
2018-10-03T11:48:46.233Z,8.23
2018-10-03T11:51:14.571Z,5.17
2018-10-03T11:53:42.603Z,6.03
2018-10-03T11:56:10.763Z,6.33
2018-10-03T11:58:39.016Z,6.47
2018-10-03T12:01:07.113Z,4.27
2018-10-03T12:03:35.201Z,6.45
2018-10-03T12:06:03.383Z,8.20
2018-10-03T12:08:31.423Z,8.17
2018-10-03T12:10:59.436Z,6.83
2018-10-03T12:13:27.460Z,7.27
2018-10-03T12:15:55.627Z,4.03
2018-10-03T12:18:23.812Z,6.17
2018-10-03T12:20:52.072Z,8.77
2018-10-03T12:23:20.108Z,5.53
2018-10-03T12:25:48.131Z,6.47
2018-10-03T12:28:16.167Z,5.87
2018-10-03T12:30:46.211Z,6.57
2018-10-03T12:33:14.304Z,5.90
2018-10-03T12:35:42.309Z,5.93
2018-10-03T12:38:10.326Z,5.80
2018-10-03T12:40:38.364Z,5.80
2018-10-03T12:43:06.591Z,5.27
2018-10-03T12:45:34.743Z,4.67
2018-10-03T12:48:02.779Z,3.37
2018-10-03T12:50:30.808Z,6.40
2018-10-03T12:52:58.827Z,5.70
2018-10-03T12:55:26.868Z,4.97
2018-10-03T12:57:54.886Z,5.67
2018-10-03T13:00:25.388Z,5.33
2018-10-03T13:02:53.491Z,6.13
2018-10-03T13:05:21.516Z,4.43
2018-10-03T13:07:50.028Z,4.23
2018-10-03T13:10:18.096Z,7.13
2018-10-03T13:12:46.123Z,4.13
2018-10-03T13:15:14.264Z,5.13
2018-10-03T13:17:42.300Z,8.03
2018-10-03T13:20:10.571Z,6.80
2018-10-03T13:22:38.628Z,8.10
2018-10-03T13:25:06.652Z,8.00
2018-10-03T13:27:34.861Z,8.33
2018-10-03T13:30:02.996Z,5.97
2018-10-03T13:32:31.015Z,6.27
2018-10-03T13:34:59.067Z,6.87
2018-10-03T13:37:27.092Z,6.03
2018-10-03T13:39:55.260Z,4.93
2018-10-03T13:42:23.305Z,6.73
2018-10-03T13:44:51.399Z,7.23
2018-10-03T13:47:19.460Z,7.87
2018-10-03T13:49:47.544Z,7.30
2018-10-03T13:52:15.584Z,6.70
2018-10-03T13:54:43.607Z,6.73
2018-10-03T13:57:11.630Z,5.47
2018-10-03T13:59:39.820Z,5.03
2018-10-03T14:02:07.843Z,5.73
2018-10-03T14:04:35.979Z,6.97
2018-10-03T14:07:05.280Z,7.35
2018-10-03T14:09:33.306Z,7.00
2018-10-03T14:12:01.708Z,9.90
2018-10-03T14:14:29.744Z,11.07
2018-10-03T14:16:57.751Z,10.78
2018-10-03T14:19:25.763Z,7.10
2018-10-03T14:21:53.978Z,6.10
2018-10-03T14:24:22.071Z,6.90
2018-10-03T14:26:50.070Z,8.73
2018-10-03T14:29:18.397Z,7.30
2018-10-03T14:31:46.614Z,5.20
2018-10-03T14:34:14.623Z,6.63
2018-10-03T14:36:42.755Z,8.07
2018-10-03T14:39:10.888Z,5.12
2018-10-03T14:41:39.188Z,10.23
2018-10-03T14:44:07.225Z,8.87
2018-10-03T14:46:35.742Z,8.90
2018-10-03T14:49:04.772Z,7.90
2018-10-03T14:51:32.965Z,7.40
2018-10-03T14:54:01.080Z,6.53
2018-10-03T14:56:29.129Z,9.13
2018-10-03T14:58:57.404Z,6.93
2018-10-03T15:01:25.584Z,8.77
2018-10-03T15:06:27.872Z,7.70
2018-10-03T15:08:55.944Z,7.50
2018-10-03T15:11:24.095Z,6.93
2018-10-03T15:13:52.135Z,9.43
2018-10-03T15:16:20.156Z,9.23
2018-10-03T15:18:48.533Z,10.13
2018-10-03T15:21:16.540Z,7.83
2018-10-03T15:23:44.574Z,7.10
2018-10-03T15:26:13.047Z,7.10
2018-10-03T15:28:41.070Z,9.23
2018-10-03T15:31:09.088Z,9.03
2018-10-03T15:33:37.308Z,8.90
2018-10-03T15:36:05.340Z,9.83
2018-10-03T15:38:33.407Z,6.60
2018-10-03T15:41:01.429Z,10.53
2018-10-03T15:43:29.479Z,10.70
2018-10-03T15:45:57.525Z,7.70
2018-10-03T15:48:25.695Z,8.95
2018-10-03T15:50:53.777Z,9.03
2018-10-03T15:53:21.800Z,9.38
2018-10-03T15:55:49.828Z,8.93
2018-10-03T15:58:17.902Z,7.40
2018-10-03T16:00:46.510Z,10.67
2018-10-03T16:03:14.539Z,9.93
2018-10-03T16:05:42.572Z,9.67
2018-10-03T16:08:10.592Z,6.77
2018-10-03T16:10:39.299Z,8.67
2018-10-03T16:13:07.708Z,9.37
2018-10-03T16:15:35.774Z,5.05
2018-10-03T16:18:04.883Z,12.63
2018-10-03T16:20:32.928Z,10.47
2018-10-03T16:23:01.960Z,7.77
2018-10-03T16:25:30.880Z,9.15
2018-10-03T16:27:59.343Z,11.30
2018-10-03T16:30:27.520Z,8.77
2018-10-03T16:32:55.770Z,5.97
2018-10-03T16:35:23.967Z,11.53
2018-10-03T16:37:52.004Z,8.50
2018-10-03T16:40:20.036Z,10.82
2018-10-03T16:42:48.080Z,11.13
2018-10-03T16:45:16.104Z,10.37
2018-10-03T16:47:44.328Z,8.40
2018-10-03T16:50:12.442Z,9.23
2018-10-03T16:52:40.496Z,10.93
2018-10-03T16:55:08.844Z,9.70
2018-10-03T16:57:36.952Z,9.27
2018-10-03T17:00:05.767Z,8.60
2018-10-03T17:02:33.785Z,9.90
2018-10-03T17:05:01.956Z,10.43
2018-10-03T17:07:30.099Z,9.97
2018-10-03T17:09:58.132Z,11.70
2018-10-03T17:12:26.167Z,7.00
2018-10-03T17:14:54.340Z,8.17
2018-10-03T17:17:22.725Z,5.47
2018-10-03T17:19:50.817Z,13.68
2018-10-03T17:22:18.870Z,10.80
2018-10-03T17:24:47.088Z,16.10
2018-10-03T17:27:15.129Z,10.10
2018-10-03T17:29:43.341Z,8.10
2018-10-03T17:32:12.040Z,9.13
2018-10-03T17:34:40.154Z,9.23
2018-10-03T17:37:08.432Z,7.13
2018-10-03T17:39:36.484Z,8.90
2018-10-03T17:42:04.611Z,10.97
2018-10-03T17:44:32.663Z,8.37
2018-10-03T17:47:00.720Z,10.30
2018-10-03T17:49:29.236Z,5.93
2018-10-03T17:51:57.284Z,8.63
2018-10-03T17:54:25.331Z,5.90
2018-10-03T17:56:53.524Z,8.07
2018-10-03T17:59:22.596Z,11.73
2018-10-03T18:01:53.404Z,5.97
2018-10-03T18:04:21.488Z,9.60
2018-10-03T18:06:49.571Z,8.37
2018-10-03T18:09:17.651Z,6.40
2018-10-03T18:11:45.904Z,9.47
2018-10-03T18:14:13.964Z,7.63
2018-10-03T18:16:41.999Z,10.30
2018-10-03T18:19:10.052Z,7.33
2018-10-03T18:21:38.116Z,9.77
2018-10-03T18:24:06.184Z,8.23
2018-10-03T18:26:35.244Z,9.00
2018-10-03T18:29:03.416Z,9.47
2018-10-03T18:31:31.544Z,14.13
2018-10-03T18:33:59.487Z,9.90
2018-10-03T18:36:27.601Z,8.23
2018-10-03T18:38:56.277Z,6.47
2018-10-03T18:41:24.316Z,9.60
2018-10-03T18:43:52.458Z,11.83
2018-10-03T18:46:20.680Z,12.90
2018-10-03T18:48:48.825Z,11.87
2018-10-03T18:51:16.855Z,10.48
2018-10-03T18:53:45.124Z,9.37
2018-10-03T18:56:13.167Z,9.73
2018-10-03T18:58:41.223Z,16.90
2018-10-03T19:01:09.316Z,15.20
2018-10-03T19:03:37.380Z,11.90
2018-10-03T19:06:05.495Z,12.80
2018-10-03T19:08:33.865Z,11.27
2018-10-03T19:11:01.952Z,12.37
2018-10-03T19:13:30.011Z,6.37
2018-10-03T19:15:58.044Z,14.63
2018-10-03T19:18:26.080Z,15.87
2018-10-03T19:20:54.200Z,12.07
2018-10-03T19:23:22.235Z,8.55
2018-10-03T19:25:50.292Z,6.97
2018-10-03T19:28:18.376Z,9.00
2018-10-03T19:30:46.564Z,10.88
2018-10-03T19:33:14.635Z,15.90
2018-10-03T19:35:42.785Z,18.98
2018-10-03T19:38:10.721Z,12.50
2018-10-03T19:40:38.779Z,14.87
2018-10-03T19:43:06.832Z,8.73
2018-10-03T19:45:35.045Z,7.13
2018-10-03T19:48:03.684Z,5.47
2018-10-03T19:50:32.231Z,10.90
2018-10-03T19:53:00.265Z,14.13
2018-10-03T19:55:28.297Z,13.07
2018-10-03T19:57:56.478Z,9.33
2018-10-03T20:00:24.543Z,11.53
2018-10-03T20:02:52.632Z,9.47
2018-10-03T20:05:20.828Z,10.67
2018-10-03T20:07:48.851Z,8.70
2018-10-03T20:10:16.895Z,21.65
2018-10-03T20:12:44.969Z,25.57
2018-10-03T20:15:13.161Z,25.73
2018-10-03T20:17:41.215Z,15.40
2018-10-03T20:20:09.270Z,16.70
2018-10-03T20:22:37.320Z,16.67
2018-10-03T20:25:05.364Z,16.23
2018-10-03T20:27:33.398Z,16.97
2018-10-03T20:30:01.456Z,18.33
2018-10-03T20:32:29.476Z,26.20
2018-10-03T20:34:57.540Z,23.43
2018-10-03T20:37:25.876Z,21.53
2018-10-03T20:39:54.809Z,27.53
2018-10-03T20:42:22.828Z,24.45
2018-10-03T20:44:50.855Z,22.40
2018-10-03T20:47:18.891Z,24.87
2018-10-03T20:49:46.983Z,18.63
2018-10-03T20:52:15.035Z,17.23
2018-10-03T20:54:43.115Z,13.05
2018-10-03T20:57:11.295Z,12.00
2018-10-03T20:59:39.343Z,13.43
2018-10-03T21:02:07.744Z,17.23
2018-10-03T21:04:36.391Z,13.97
2018-10-03T21:07:04.596Z,16.82
2018-10-03T21:09:32.607Z,11.33
2018-10-03T21:12:00.628Z,11.20
2018-10-03T21:14:28.659Z,12.50
2018-10-03T21:16:56.683Z,11.43
2018-10-03T21:19:25.385Z,12.60
2018-10-03T21:21:53.412Z,10.93
2018-10-03T21:24:21.433Z,8.37
2018-10-03T21:26:49.619Z,11.63
2018-10-03T21:29:17.648Z,8.45
2018-10-03T21:31:45.693Z,13.20
2018-10-03T21:34:13.751Z,9.17
2018-10-03T21:36:41.771Z,6.17
2018-10-03T21:39:09.807Z,8.90
2018-10-03T21:41:37.823Z,10.87
2018-10-03T21:44:05.854Z,10.93
2018-10-03T21:46:33.955Z,9.83
2018-10-03T21:49:01.976Z,7.00
2018-10-03T21:51:29.999Z,7.80
2018-10-03T21:53:58.028Z,9.07
2018-10-03T21:56:26.069Z,13.27
2018-10-03T21:58:54.092Z,9.80
2018-10-03T22:01:22.108Z,11.57
2018-10-03T22:03:50.124Z,8.05
2018-10-03T22:06:18.155Z,9.27
2018-10-03T22:08:47.060Z,10.73
2018-10-03T22:11:15.076Z,9.08
2018-10-03T22:13:43.095Z,11.70
2018-10-03T22:16:11.127Z,10.53
2018-10-03T22:18:39.156Z,12.80
2018-10-03T22:21:07.188Z,14.83
2018-10-03T22:23:35.215Z,8.63
2018-10-03T22:26:03.232Z,11.23
2018-10-03T22:28:31.248Z,15.67
2018-10-03T22:30:59.272Z,10.13
2018-10-03T22:33:27.281Z,10.97
2018-10-03T22:35:55.299Z,13.37
2018-10-03T22:38:23.475Z,19.75
2018-10-03T22:40:52.789Z,11.70
2018-10-03T22:43:20.792Z,11.00
2018-10-03T22:45:48.957Z,15.60
2018-10-03T22:48:16.984Z,9.78
2018-10-03T22:50:45.003Z,14.27
2018-10-03T22:53:13.043Z,10.67
2018-10-03T22:55:41.044Z,8.27
2018-10-03T22:58:09.221Z,13.87
2018-10-03T23:00:39.239Z,16.43
2018-10-03T23:03:07.480Z,11.57
2018-10-03T23:05:35.508Z,14.37
2018-10-03T23:08:03.520Z,9.53
2018-10-03T23:10:31.564Z,12.90
2018-10-03T23:12:59.594Z,15.50
2018-10-03T23:15:27.688Z,12.57
2018-10-03T23:17:55.708Z,11.10
2018-10-03T23:20:23.737Z,11.90
2018-10-03T23:22:51.784Z,12.77
2018-10-03T23:25:19.799Z,13.30
2018-10-03T23:27:48.067Z,14.23
2018-10-03T23:30:16.106Z,11.07
2018-10-03T23:32:44.139Z,7.77
2018-10-03T23:35:12.339Z,12.37
2018-10-03T23:37:40.363Z,11.00
2018-10-03T23:40:08.391Z,13.70
2018-10-03T23:42:36.432Z,8.10
2018-10-03T23:45:04.456Z,10.10
2018-10-03T23:47:32.479Z,10.03
2018-10-03T23:50:00.648Z,12.40
2018-10-03T23:52:28.679Z,16.60
2018-10-03T23:54:56.721Z,12.10
2018-10-03T23:57:24.847Z,9.13
2018-10-03T23:59:52.812Z,13.95
